Rusape, Zimbabwe
Current Conditions -  °F | °C
As of 11:00 AM on Saturday 22 Nov 2014 (Local Time) from FVHA Reporting Station
Few Clouds Few Clouds  
Wind Chill: 81°   Ceiling: Unl
Heat Index: 81°   Visibility: 6mi
Dew Point: 52°   Wind: 10mph
Humidity: 37%   Direction: 40°NE
Pressure: 30.27"   Gusts: NA
Location:  18.53°S, 32.12°E
Report Text: FVHA 220900Z 04009KT 350V100 9999 FEW045 27/11 Q1025 NOSIG
Loading
Personal Weather Stations






























Interactive Weather Map New forecast layout! Learn more

10-Day Weather Forecast

Advertisements
Track Severe Weather on mobile